| time (UTC) | temp C | wind direction | speed KPH | gust KPH | rain 1hr cm | rain 24hr cm | rain mn cm | humidity % | barometer mb |
| 20260507070009 | 5 | 132 | 0.0 | 1.6 | 0.00 | 0.33 | 0.00 | 100 | 1019.7 |
| 20260507064504 | 5 | 132 | 0.0 | 0.0 | 0.00 | 0.48 | 0.00 | 100 | 1019.7 |
| 20260507063002 | 5 | 132 | 0.0 | 0.0 | 0.00 | 0.48 | 0.00 | 100 | 1019.8 |
| 20260507061503 | 4 | 132 | 0.0 | 0.0 | 0.00 | 0.48 | 0.00 | 100 | 1019.7 |
| 20260507060001 | 5 | 132 | 0.0 | 0.0 | 0.00 | 0.48 | 0.00 | 100 | 1019.7 |
| 20260507054608 | 5 | 132 | 0.0 | 0.0 | 0.00 | 0.64 | 0.00 | 100 | 1019.9 |
| 20260507053110 | 5 | 132 | 0.0 | 0.0 | 0.00 | 0.64 | 0.00 | 100 | 1019.9 |
| 20260507051607 | 5 | 132 | 0.0 | 0.0 | 0.00 | 0.64 | 0.00 | 100 | 1020.1 |
| 20260507050056 | 5 | 132 | 0.0 | 0.0 | 0.00 | 0.64 | 0.00 | 100 | 1020.1 |
| 20260507044558 | 5 | 132 | 0.0 | 0.0 | 0.00 | 0.66 | 0.00 | 100 | 1020.1 |
| 20260507043056 | 6 | 132 | 0.0 | 0.0 | 0.00 | 0.66 | 0.00 | 100 | 1020.1 |
| 20260507041552 | 6 | 132 | 0.0 | 0.0 | 0.00 | 0.66 | 0.00 | 100 | 1020.0 |
| 20260507040048 | 6 | 132 | 0.0 | 0.0 | 0.00 | 0.66 | 0.00 | 100 | 1019.9 |
| 20260507034546 | 6 | 132 | 0.0 | 0.0 | 0.00 | 0.71 | 0.66 | 100 | 1020.0 |
| 20260507033044 | 7 | 132 | 0.0 | 0.0 | 0.00 | 0.71 | 0.66 | 100 | 1019.9 |
| 20260507031543 | 7 | 360 | 0.0 | 0.0 | 0.00 | 0.71 | 0.66 | 100 | 1020.0 |
| 20260507030041 | 8 | 132 | 0.0 | 0.0 | 0.00 | 0.71 | 0.66 | 100 | 1020.1 |
| 20260507024541 | 8 | 360 | 0.0 | 0.0 | 0.00 | 1.07 | 0.66 | 100 | 1020.1 |
| 20260507023042 | 8 | 132 | 0.0 | 0.0 | 0.00 | 1.07 | 0.66 | 100 | 1019.9 |
| 20260507021542 | 9 | 133 | 0.0 | 0.0 | 0.00 | 1.07 | 0.66 | 100 | 1019.9 |
| 20260507020037 | 10 | 360 | 0.0 | 0.0 | 0.00 | 1.07 | 0.66 | 100 | 1019.8 |
| 20260507014534 | 10 | 360 | 0.0 | 0.0 | 0.00 | 1.14 | 0.66 | 100 | 1019.6 |
| 20260507013033 | 10 | 360 | 0.0 | 1.6 | 0.00 | 1.14 | 0.66 | 100 | 1018.9 |
| 20260507011538 | 11 | 360 | 0.0 | 1.6 | 0.00 | 1.14 | 0.66 | 100 | 1019.1 |
| 20260507010048 | 11 | 360 | 0.0 | 1.6 | 0.00 | 1.14 | 0.66 | 100 | 1019.2 |
| 20260507004534 | 11 | 360 | 0.0 | 4.8 | 0.00 | 1.14 | 0.66 | 100 | 1019.2 |
| 20260507003029 | 12 | 134 | 3.2 | 11.3 | 0.00 | 1.14 | 0.66 | 100 | 1018.9 |
| 20260507001527 | 12 | 117 | 4.8 | 14.5 | 0.00 | 1.14 | 0.66 | 100 | 1018.5 |
| 20260507000026 | 12 | 115 | 3.2 | 6.4 | 0.00 | 1.14 | 0.66 | 100 | 1018.2 |
| 20260506234528 | 12 | 120 | 1.6 | 11.3 | 0.00 | 1.14 | 0.66 | 100 | 1018.1 |
| 20260506233025 | 12 | 110 | 3.2 | 9.7 | 0.00 | 1.14 | 0.66 | 100 | 1017.7 |
| 20260506231525 | 13 | 123 | 3.2 | 11.3 | 0.00 | 1.14 | 0.66 | 100 | 1018.0 |
| 20260506230028 | 13 | 112 | 3.2 | 12.9 | 0.00 | 1.14 | 0.66 | 100 | 1017.9 |
| 20260506224524 | 13 | 125 | 3.2 | 9.7 | 0.00 | 1.14 | 0.66 | 100 | 1018.3 |
| 20260506223024 | 13 | 113 | 3.2 | 11.3 | 0.00 | 1.14 | 0.66 | 100 | 1018.4 |
| 20260506221522 | 13 | 121 | 3.2 | 11.3 | 0.00 | 1.14 | 0.66 | 100 | 1018.2 |
| 20260506220028 | 13 | 136 | 1.6 | 8.0 | 0.00 | 1.14 | 0.66 | 100 | 1018.4 |
| 20260506214518 | 14 | 170 | 4.8 | 11.3 | 0.00 | 1.22 | 0.66 | 100 | 1018.1 |
| 20260506213017 | 14 | 121 | 1.6 | 8.0 | 0.00 | 1.22 | 0.66 | 100 | 1017.7 |
| 20260506211516 | 14 | 105 | 1.6 | 12.9 | 0.00 | 1.22 | 0.66 | 100 | 1017.5 |
| 20260506210020 | 15 | 117 | 3.2 | 8.0 | 0.00 | 1.22 | 0.66 | 100 | 1017.4 |
| 20260506204516 | 15 | 117 | 3.2 | 9.7 | 0.00 | 1.22 | 0.66 | 100 | 1017.4 |
| 20260506203016 | 15 | 128 | 3.2 | 8.0 | 0.00 | 1.22 | 0.66 | 100 | 1017.4 |
| 20260506201526 | 15 | 180 | 3.2 | 12.9 | 0.00 | 1.22 | 0.66 | 100 | 1017.5 |
| 20260506200014 | 15 | 113 | 4.8 | 11.3 | 0.00 | 1.22 | 0.66 | 100 | 1017.2 |
| 20260506194513 | 16 | 115 | 3.2 | 11.3 | 0.00 | 1.22 | 0.66 | 100 | 1017.4 |
| 20260506193012 | 16 | 90 | 3.2 | 16.1 | 0.00 | 1.22 | 0.66 | 100 | 1017.2 |
| 20260506191512 | 16 | 117 | 3.2 | 14.5 | 0.00 | 1.22 | 0.66 | 100 | 1017.1 |
| 20260506190018 | 16 | 140 | 3.2 | 14.5 | 0.00 | 1.22 | 0.66 | 100 | 1017.1 |
| 20260506184518 | 15 | 151 | 8.0 | 17.7 | 0.00 | 1.22 | 0.66 | 100 | 1017.1 |
| 20260506183008 | 15 | 117 | 3.2 | 11.3 | 0.00 | 1.22 | 0.66 | 100 | 1017.3 |
| 20260506181507 | 15 | 107 | 3.2 | 11.3 | 0.00 | 1.22 | 0.66 | 100 | 1017.3 |
| 20260506180007 | 15 | 115 | 1.6 | 12.9 | 0.00 | 1.22 | 0.66 | 100 | 1017.5 |
| 20260506174511 | 15 | 111 | 4.8 | 12.9 | 0.00 | 1.22 | 0.66 | 100 | 1017.5 |
| 20260506173002 | 15 | 155 | 3.2 | 11.3 | 0.00 | 1.22 | 0.66 | 100 | 1017.5 |
| 20260506171609 | 14 | 109 | 3.2 | 11.3 | 0.00 | 1.22 | 0.66 | 100 | 1017.6 |
| 20260506170100 | 14 | 156 | 1.6 | 9.7 | 0.00 | 1.22 | 0.66 | 100 | 1017.7 |
| 20260506164559 | 13 | 132 | 6.4 | 14.5 | 0.00 | 1.22 | 0.66 | 100 | 1017.5 |
| 20260506163107 | 13 | 129 | 3.2 | 14.5 | 0.00 | 1.22 | 0.66 | 100 | 1017.4 |
| 20260506161557 | 13 | 119 | 4.8 | 12.9 | 0.00 | 1.22 | 0.66 | 100 | 1017.7 |
| 20260506160108 | 13 | 109 | 3.2 | 12.9 | 0.00 | 1.22 | 0.66 | 100 | 1017.6 |
| 20260506154553 | 13 | 194 | 3.2 | 11.3 | 0.00 | 1.22 | 0.66 | 100 | 1017.2 |
| 20260506153052 | 12 | 140 | 3.2 | 9.7 | 0.00 | 1.22 | 0.66 | 100 | 1017.1 |
| 20260506151551 | 12 | 136 | 3.2 | 8.0 | 0.00 | 1.22 | 0.66 | 100 | 1016.9 |
| 20260506150054 | 11 | 103 | 4.8 | 11.3 | 0.00 | 1.22 | 0.66 | 100 | 1016.8 |
| 20260506144559 | 11 | 107 | 4.8 | 14.5 | 0.00 | 1.22 | 0.66 | 100 | 1016.7 |
| 20260506143048 | 10 | 80 | 3.2 | 14.5 | 0.00 | 1.22 | 0.66 | 100 | 1016.6 |
| 20260506141545 | 10 | 114 | 1.6 | 8.0 | 0.00 | 1.22 | 0.66 | 100 | 1016.4 |
| 20260506140044 | 9 | 120 | 1.6 | 11.3 | 0.00 | 1.22 | 0.66 | 100 | 1016.2 |
| 20260506134542 | 8 | 134 | 3.2 | 8.0 | 0.00 | 1.22 | 0.66 | 100 | 1016.0 |
| 20260506133041 | 8 | 98 | 1.6 | 12.9 | 0.00 | 1.22 | 0.66 | 100 | 1015.9 |
| 20260506131548 | 8 | 84 | 3.2 | 16.1 | 0.00 | 1.22 | 0.66 | 100 | 1015.8 |
| 20260506130038 | 8 | 152 | 0.0 | 4.8 | 0.00 | 1.22 | 0.66 | 100 | 1015.4 |
| 20260506124537 | 8 | 360 | 3.2 | 9.7 | 0.03 | 1.22 | 0.66 | 100 | 1015.4 |
| 20260506123036 | 7 | 360 | 3.2 | 9.7 | 0.03 | 1.22 | 0.66 | 100 | 1015.2 |
| 20260506121534 | 8 | 360 | 0.0 | 8.0 | 0.03 | 1.22 | 0.66 | 100 | 1015.0 |
| 20260506120031 | 7 | 140 | 1.6 | 11.3 | 0.03 | 1.22 | 0.66 | 100 | 1014.3 |
| 20260506114537 | 7 | 123 | 1.6 | 11.3 | 0.00 | 1.19 | 0.64 | 100 | 1014.5 |
| 20260506113027 | 7 | 103 | 3.2 | 12.9 | 0.03 | 1.19 | 0.64 | 100 | 1013.8 |
| 20260506111525 | 7 | 129 | 1.6 | 11.3 | 0.03 | 1.19 | 0.64 | 100 | 1013.8 |
| 20260506110024 | 7 | 120 | 1.6 | 6.4 | 0.03 | 1.19 | 0.64 | 100 | 1012.9 |
| 20260506104521 | 7 | 109 | 0.0 | 6.4 | 0.03 | 1.19 | 0.64 | 100 | 1012.7 |
| 20260506103021 | 7 | 123 | 0.0 | 6.4 | 0.00 | 1.17 | 0.61 | 100 | 1012.6 |
| 20260506101520 | 7 | 134 | 1.6 | 8.0 | 0.03 | 1.17 | 0.61 | 100 | 1013.1 |
| 20260506100023 | 7 | 121 | 3.2 | 8.0 | 0.03 | 1.17 | 0.61 | 100 | 1012.7 |
| 20260506094514 | 7 | 144 | 1.6 | 12.9 | 0.03 | 1.17 | 0.61 | 100 | 1012.3 |
| 20260506093013 | 7 | 130 | 1.6 | 12.9 | 0.03 | 1.17 | 0.61 | 100 | 1012.3 |
| 20260506091513 | 7 | 196 | 1.6 | 11.3 | 0.05 | 1.14 | 0.58 | 100 | 1011.9 |
| 20260506090010 | 7 | 128 | 3.2 | 17.7 | 0.13 | 1.14 | 0.58 | 100 | 1012.2 |
| 20260506084508 | 8 | 121 | 4.8 | 17.7 | 0.15 | 1.14 | 0.58 | 100 | 1012.2 |
| 20260506083005 | 8 | 133 | 4.8 | 16.1 | 0.13 | 1.12 | 0.56 | 100 | 1011.5 |
| 20260506081505 | 8 | 360 | 3.2 | 16.1 | 0.15 | 1.09 | 0.53 | 100 | 1011.5 |
| 20260506073056 | 9 | 360 | 4.8 | 17.7 | 0.15 | 0.99 | 0.43 | 100 | 1010.8 |
| 20260506071557 | 10 | 360 | 3.2 | 16.1 | 0.13 | 0.94 | 0.38 | 100 | 1010.6 |